Terminal Aerodrome Forecast
Issued by NWS

Current Version | Previous Version | Text Only | Print | Product List | Glossary Off
Versions: 1 2 3 4 5 6 7 8 9 10 11 12 13 14 15 16 17 18 19 20

000
FTUS41 KILN 242300
TAFLCK
TAF
KLCK 242332Z 2500/2524 11008KT P6SM BKN100
     FM250900 18014G23KT P6SM -SHRA OVC040
     FM251100 19013G23KT 4SM -SHRA SCT025 OVC035
     FM251300 18014G24KT 3SM -SHRA OVC025
     FM251800 21013G23KT P6SM BKN035
     FM252100 19008KT P6SM SCT050 BKN150=

USA.gov is the U.S. government's official web portal to all federal, state and local government web resources and services.